Time;durP1;ratioP1;P1;durP2;ratioP2;P2;SDS_P1;SDS_P2;PMS_P1;PMS_P2;Temp;Humidity;BMP_temperature;BMP_pressure;BME280_temperature;BME280_humidity;BME280_pressure;Samples;Min_cycle;Max_cycle;Signal;HPM_P1;HPM_P2
2021/12/15 00:01:54;;;;;;;119.47;71.60;;;;;;;;;;4991332;28;20439;-79
2021/12/15 00:04:26;;;;;;;106.77;64.13;;;;;;;;;;4993471;28;21304;-79
2021/12/15 00:06:56;;;;;;;128.30;77.77;;;;;;;;;;4979220;28;21289;-79
2021/12/15 00:09:33;;;;;;;126.43;72.70;;;;;;;;;;4979064;28;20424;-79
2021/12/15 00:12:15;;;;;;;109.93;68.10;;;;;;;;;;4980103;28;20626;-78
2021/12/15 00:14:52;;;;;;;116.13;70.07;;;;;;;;;;4981056;28;20512;-79
2021/12/15 00:17:23;;;;;;;103.13;61.20;;;;;;;;;;4966572;28;21527;-79
2021/12/15 00:19:53;;;;;;;122.27;72.40;;;;;;;;;;4970703;28;20520;-80
2021/12/15 00:22:35;;;;;;;145.40;82.27;;;;;;;;;;4971998;28;20425;-79
2021/12/15 00:25:13;;;;;;;131.47;76.73;;;;;;;;;;4981782;28;20492;-79
2021/12/15 00:27:43;;;;;;;124.47;74.70;;;;;;;;;;4990646;28;20436;-80
2021/12/15 00:30:11;;;;;;;117.90;70.37;;;;;;;;;;4987931;28;20458;-79
2021/12/15 00:32:42;;;;;;;110.20;67.07;;;;;;;;;;4986509;28;21491;-79
2021/12/15 00:35:09;;;;;;;110.90;65.13;;;;;;;;;;4971731;28;20421;-79
2021/12/15 00:37:36;;;;;;;112.67;66.00;;;;;;;;;;5001716;28;20530;-80
2021/12/15 00:40:04;;;;;;;106.70;67.43;;;;;;;;;;4978273;28;20446;-79
2021/12/15 00:42:30;;;;;;;109.23;64.83;;;;;;;;;;4983772;28;20432;-80
2021/12/15 00:44:57;;;;;;;113.03;70.10;;;;;;;;;;4987590;28;20550;-79
2021/12/15 00:47:23;;;;;;;112.67;68.17;;;;;;;;;;4982202;28;20416;-79
2021/12/15 00:49:51;;;;;;;112.53;70.33;;;;;;;;;;4975534;28;20534;-78
2021/12/15 00:52:17;;;;;;;108.97;66.93;;;;;;;;;;4970191;28;20724;-78
2021/12/15 00:54:46;;;;;;;117.73;70.63;;;;;;;;;;4984505;28;20891;-79
2021/12/15 00:57:13;;;;;;;145.77;81.93;;;;;;;;;;4977899;28;20432;-78
2021/12/15 00:59:40;;;;;;;111.73;68.87;;;;;;;;;;4972201;28;20470;-78
2021/12/15 01:02:10;;;;;;;114.20;72.30;;;;;;;;;;4982506;28;20443;-78
2021/12/15 01:04:36;;;;;;;108.20;66.57;;;;;;;;;;4965081;28;21315;-78
2021/12/15 01:07:09;;;;;;;104.80;63.47;;;;;;;;;;4983467;28;20428;-78
2021/12/15 01:09:51;;;;;;;110.73;67.20;;;;;;;;;;4988147;28;20527;-79
2021/12/15 01:14:26;;;;;;;107.30;66.77;;;;;;;;;;4984816;28;20417;-79
2021/12/15 01:20:38;;;;;;;99.93;61.43;;;;;;;;;;4986393;28;21415;-78
2021/12/15 01:23:07;;;;;;;109.43;67.43;;;;;;;;;;4959830;28;20543;-78
2021/12/15 01:25:39;;;;;;;121.20;75.77;;;;;;;;;;4964821;28;20452;-78
2021/12/15 01:28:07;;;;;;;143.57;84.73;;;;;;;;;;4982301;28;20455;-78
2021/12/15 01:30:35;;;;;;;116.70;72.87;;;;;;;;;;4984351;28;20432;-78
2021/12/15 01:33:03;;;;;;;117.77;74.27;;;;;;;;;;4983364;28;20426;-78
2021/12/15 01:35:34;;;;;;;108.43;70.20;;;;;;;;;;4996948;28;20499;-78
2021/12/15 01:38:01;;;;;;;117.40;75.37;;;;;;;;;;4980659;28;20543;-79
2021/12/15 01:40:37;;;;;;;122.50;77.83;;;;;;;;;;4984976;28;20440;-78
2021/12/15 01:43:13;;;;;;;133.07;80.43;;;;;;;;;;4971991;28;21289;-79
2021/12/15 01:48:24;;;;;;;140.27;89.47;;;;;;;;;;4983786;28;20409;-78
2021/12/15 01:50:51;;;;;;;136.33;84.33;;;;;;;;;;4984795;28;20786;-78
2021/12/15 01:53:18;;;;;;;141.77;87.37;;;;;;;;;;4980679;28;20424;-78
2021/12/15 01:55:46;;;;;;;124.37;78.93;;;;;;;;;;4966340;28;20435;-79
2021/12/15 01:58:13;;;;;;;115.90;73.07;;;;;;;;;;4981524;28;20432;-77
2021/12/15 02:00:44;;;;;;;119.33;76.23;;;;;;;;;;4981574;28;20429;-78
2021/12/15 02:03:11;;;;;;;134.30;83.13;;;;;;;;;;4980335;28;20527;-79
2021/12/15 02:05:38;;;;;;;123.10;79.10;;;;;;;;;;4968523;28;20707;-77
2021/12/15 02:08:07;;;;;;;122.43;78.10;;;;;;;;;;4977495;28;20570;-78
2021/12/15 02:10:39;;;;;;;125.73;80.77;;;;;;;;;;4963550;28;20444;-78
2021/12/15 02:13:06;;;;;;;120.37;78.60;;;;;;;;;;4998565;28;20429;-78
2021/12/15 02:15:35;;;;;;;119.87;80.70;;;;;;;;;;4969910;28;20514;-78
2021/12/15 02:18:02;;;;;;;132.13;84.13;;;;;;;;;;4981398;28;20459;-79
2021/12/15 02:20:35;;;;;;;119.93;79.83;;;;;;;;;;4998358;28;20433;-77
2021/12/15 02:23:02;;;;;;;128.63;81.67;;;;;;;;;;4976717;28;20431;-78
2021/12/15 02:25:29;;;;;;;116.83;78.20;;;;;;;;;;4967883;28;20456;-78
2021/12/15 02:27:55;;;;;;;113.57;76.37;;;;;;;;;;4980245;28;20432;-78
2021/12/15 02:33:24;;;;;;;129.10;79.23;;;;;;;;;;4983445;28;20416;-77
2021/12/15 02:38:43;;;;;;;123.57;77.60;;;;;;;;;;4968031;28;20585;-77
2021/12/15 02:41:31;;;;;;;124.47;79.73;;;;;;;;;;4980828;28;21212;-77
2021/12/15 02:44:00;;;;;;;118.87;78.27;;;;;;;;;;4995959;28;20874;-77
2021/12/15 02:46:27;;;;;;;109.27;75.07;;;;;;;;;;4970239;28;20414;-78
2021/12/15 02:48:55;;;;;;;137.50;86.60;;;;;;;;;;4981548;28;21514;-78
2021/12/15 02:51:25;;;;;;;115.60;80.13;;;;;;;;;;4968467;28;20433;-78
2021/12/15 02:53:52;;;;;;;136.13;89.13;;;;;;;;;;4963740;28;20451;-78
2021/12/15 02:56:19;;;;;;;110.43;75.20;;;;;;;;;;4969045;28;20436;-78
2021/12/15 02:58:54;;;;;;;103.50;68.27;;;;;;;;;;4967528;28;20732;-78
2021/12/15 03:01:33;;;;;;;153.90;94.43;;;;;;;;;;4978424;28;20420;-78
2021/12/15 03:04:28;;;;;;;117.90;79.97;;;;;;;;;;4980115;28;20574;-78
2021/12/15 03:07:04;;;;;;;141.97;94.43;;;;;;;;;;4969875;28;20533;-78
2021/12/15 03:15:22;;;;;;;117.33;81.10;;;;;;;;;;4985884;28;20448;-78
2021/12/15 03:17:57;;;;;;;136.30;93.87;;;;;;;;;;4968193;28;20428;-78
2021/12/15 03:20:23;;;;;;;127.40;86.97;;;;;;;;;;4972309;28;20872;-78
2021/12/15 03:22:51;;;;;;;136.50;93.03;;;;;;;;;;4973382;28;20440;-79
2021/12/15 03:25:18;;;;;;;128.20;94.03;;;;;;;;;;4984262;28;21369;-79
2021/12/15 03:36:11;;;;;;;149.20;99.53;;;;;;;;;;4982087;28;20455;-78
2021/12/15 03:38:38;;;;;;;157.70;110.23;;;;;;;;;;4966539;28;20709;-78
2021/12/15 03:41:05;;;;;;;165.60;110.87;;;;;;;;;;4967364;28;20431;-78
2021/12/15 03:43:33;;;;;;;162.23;111.50;;;;;;;;;;4968472;28;20433;-78
2021/12/15 03:46:01;;;;;;;137.30;99.83;;;;;;;;;;4968569;28;20492;-78
2021/12/15 03:48:29;;;;;;;142.97;100.50;;;;;;;;;;4965877;28;20435;-77
2021/12/15 03:50:57;;;;;;;131.67;97.03;;;;;;;;;;4983000;28;20516;-78
2021/12/15 03:53:24;;;;;;;144.83;101.20;;;;;;;;;;4980357;28;20424;-78
2021/12/15 03:55:51;;;;;;;122.97;90.47;;;;;;;;;;4978976;28;20499;-79
2021/12/15 03:58:22;;;;;;;126.03;93.40;;;;;;;;;;4985662;28;21086;-78
2021/12/15 04:00:54;;;;;;;138.03;97.50;;;;;;;;;;4968796;28;20416;-79
2021/12/15 04:03:23;;;;;;;134.77;92.70;;;;;;;;;;4989413;28;21376;-78
2021/12/15 04:05:50;;;;;;;135.17;96.53;;;;;;;;;;4986243;28;20476;-79
2021/12/15 04:08:16;;;;;;;119.87;87.20;;;;;;;;;;4997709;28;20429;-78
2021/12/15 04:10:42;;;;;;;139.93;100.07;;;;;;;;;;4970095;28;20722;-78
2021/12/15 04:13:10;;;;;;;123.67;93.03;;;;;;;;;;4966707;28;21141;-78
2021/12/15 04:15:56;;;;;;;121.43;88.37;;;;;;;;;;4981273;28;20490;-78
2021/12/15 04:18:23;;;;;;;147.57;102.70;;;;;;;;;;4958226;28;21411;-78
2021/12/15 04:20:50;;;;;;;129.67;92.40;;;;;;;;;;4966249;28;20437;-78
2021/12/15 04:23:19;;;;;;;131.87;92.83;;;;;;;;;;4965591;28;20428;-79
2021/12/15 04:25:47;;;;;;;127.07;91.63;;;;;;;;;;4990550;28;21479;-79
2021/12/15 04:28:17;;;;;;;130.13;90.50;;;;;;;;;;4988789;28;20436;-78
2021/12/15 04:30:52;;;;;;;122.77;86.67;;;;;;;;;;4962845;28;20417;-78
2021/12/15 04:33:23;;;;;;;126.50;90.83;;;;;;;;;;4981860;28;20413;-77
2021/12/15 04:35:52;;;;;;;121.00;83.77;;;;;;;;;;4968683;28;21911;-78
2021/12/15 04:38:18;;;;;;;110.37;77.43;;;;;;;;;;4986115;28;20430;-77
2021/12/15 04:40:45;;;;;;;96.57;66.27;;;;;;;;;;4984291;28;20456;-78
2021/12/15 04:43:12;;;;;;;111.90;73.83;;;;;;;;;;4987795;28;20507;-78
2021/12/15 04:45:38;;;;;;;123.33;82.33;;;;;;;;;;4968498;28;20530;-78
2021/12/15 04:48:05;;;;;;;113.00;80.73;;;;;;;;;;4982243;28;20718;-77
2021/12/15 04:50:31;;;;;;;109.70;78.83;;;;;;;;;;5001266;28;20467;-78
2021/12/15 04:53:00;;;;;;;109.97;76.03;;;;;;;;;;4981479;28;21085;-79
2021/12/15 04:55:29;;;;;;;115.17;79.63;;;;;;;;;;4967893;28;20432;-79
2021/12/15 04:57:55;;;;;;;118.67;78.07;;;;;;;;;;4984998;28;20459;-78
2021/12/15 05:00:23;;;;;;;103.93;73.27;;;;;;;;;;4986149;28;20437;-78
2021/12/15 05:02:52;;;;;;;124.07;83.50;;;;;;;;;;4985333;28;20471;-78
2021/12/15 05:05:18;;;;;;;117.13;77.63;;;;;;;;;;4970820;28;20478;-78
2021/12/15 05:07:45;;;;;;;108.40;73.23;;;;;;;;;;4983555;28;20428;-78
2021/12/15 05:10:12;;;;;;;94.30;67.57;;;;;;;;;;4979188;28;20446;-77
2021/12/15 05:12:38;;;;;;;103.07;70.97;;;;;;;;;;4979121;28;21358;-78
2021/12/15 05:15:07;;;;;;;99.13;68.33;;;;;;;;;;4984552;28;20684;-78
2021/12/15 05:17:33;;;;;;;103.00;69.10;;;;;;;;;;4980783;28;20539;-77
2021/12/15 05:20:03;;;;;;;100.93;67.37;;;;;;;;;;4980931;28;20525;-78
2021/12/15 05:22:30;;;;;;;125.23;79.23;;;;;;;;;;4981969;28;20421;-77
2021/12/15 05:24:57;;;;;;;104.03;69.83;;;;;;;;;;4964214;28;20547;-78
2021/12/15 05:27:25;;;;;;;98.33;64.80;;;;;;;;;;4983362;28;21053;-78
2021/12/15 05:29:55;;;;;;;104.00;68.63;;;;;;;;;;4982608;28;20429;-78
2021/12/15 05:32:22;;;;;;;106.33;68.87;;;;;;;;;;4982255;28;21305;-79
2021/12/15 05:34:50;;;;;;;143.40;87.33;;;;;;;;;;4962548;28;20479;-78
2021/12/15 05:37:18;;;;;;;98.27;65.87;;;;;;;;;;4965566;28;20428;-80
2021/12/15 05:39:45;;;;;;;108.63;72.23;;;;;;;;;;4981737;28;20428;-78
2021/12/15 05:42:11;;;;;;;113.50;69.03;;;;;;;;;;4984609;28;20435;-78
2021/12/15 05:44:38;;;;;;;103.40;68.30;;;;;;;;;;4966252;28;20452;-79
2021/12/15 05:47:05;;;;;;;111.67;72.37;;;;;;;;;;4965191;28;20428;-77
2021/12/15 05:49:32;;;;;;;98.70;65.80;;;;;;;;;;4980398;28;20431;-78
2021/12/15 05:51:59;;;;;;;108.63;69.97;;;;;;;;;;4980148;28;20826;-78
2021/12/15 05:54:26;;;;;;;109.27;71.60;;;;;;;;;;4985793;28;20748;-79
2021/12/15 05:56:53;;;;;;;114.37;71.47;;;;;;;;;;4986548;28;20436;-79
2021/12/15 05:59:19;;;;;;;117.97;74.30;;;;;;;;;;4970099;28;20440;-79
2021/12/15 06:01:46;;;;;;;114.47;73.53;;;;;;;;;;4984542;28;20424;-78
2021/12/15 06:04:13;;;;;;;119.13;75.20;;;;;;;;;;4967230;28;20491;-78
2021/12/15 06:06:39;;;;;;;133.60;80.80;;;;;;;;;;4986094;28;20425;-79
2021/12/15 06:09:08;;;;;;;140.47;84.90;;;;;;;;;;4983739;28;20491;-79
2021/12/15 06:11:35;;;;;;;117.70;73.67;;;;;;;;;;4981191;28;20440;-79
2021/12/15 06:14:01;;;;;;;111.13;72.23;;;;;;;;;;4985274;28;20439;-79
2021/12/15 06:16:28;;;;;;;138.53;81.33;;;;;;;;;;4985889;28;20430;-79
2021/12/15 06:18:54;;;;;;;114.40;72.50;;;;;;;;;;4981488;28;20424;-79
2021/12/15 06:21:21;;;;;;;114.43;71.17;;;;;;;;;;4982027;28;20424;-80
2021/12/15 06:23:48;;;;;;;129.23;80.60;;;;;;;;;;4970151;28;20534;-79
2021/12/15 06:26:15;;;;;;;151.93;88.40;;;;;;;;;;4987120;28;21320;-79
2021/12/15 06:28:41;;;;;;;155.50;93.50;;;;;;;;;;4980514;28;20417;-78
2021/12/15 06:31:09;;;;;;;160.53;93.57;;;;;;;;;;4988228;28;20518;-79
2021/12/15 06:33:38;;;;;;;156.30;92.23;;;;;;;;;;4989566;28;20757;-79
2021/12/15 06:36:05;;;;;;;130.37;80.70;;;;;;;;;;4990832;28;20424;-80
2021/12/15 06:38:37;;;;;;;117.17;74.57;;;;;;;;;;4971426;28;20429;-80
2021/12/15 06:41:05;;;;;;;130.53;79.47;;;;;;;;;;4971587;28;20902;-80
2021/12/15 06:43:32;;;;;;;113.37;73.13;;;;;;;;;;4973098;28;20531;-80
2021/12/15 06:46:23;;;;;;;139.80;82.73;;;;;;;;;;4986632;28;20452;-79
2021/12/15 06:59:43;;;;;;;145.87;86.73;;;;;;;;;;4985997;28;20415;-80
2021/12/15 07:02:09;;;;;;;142.37;83.60;;;;;;;;;;4967566;28;20536;-80
2021/12/15 07:04:36;;;;;;;133.83;81.50;;;;;;;;;;4976274;28;21486;-80
2021/12/15 07:07:04;;;;;;;138.77;82.80;;;;;;;;;;4987542;28;20593;-80
2021/12/15 07:09:31;;;;;;;144.40;83.80;;;;;;;;;;4986071;28;20408;-80
2021/12/15 07:11:58;;;;;;;142.07;80.43;;;;;;;;;;4986921;28;20436;-79
2021/12/15 07:14:27;;;;;;;121.67;75.63;;;;;;;;;;4973189;28;21302;-79
2021/12/15 07:16:55;;;;;;;124.03;72.47;;;;;;;;;;4985278;28;20464;-80
2021/12/15 07:22:56;;;;;;;131.10;74.40;;;;;;;;;;4985625;28;21143;-80
2021/12/15 07:24:54;;;;;;;151.83;84.73;;;;;;;;;;4978899;28;20459;-81
2021/12/15 07:27:21;;;;;;;131.20;74.27;;;;;;;;;;4969775;28;20477;-80
2021/12/15 07:29:48;;;;;;;132.57;75.60;;;;;;;;;;4982351;28;20490;-80
2021/12/15 07:32:15;;;;;;;131.57;72.53;;;;;;;;;;4974710;28;20416;-81
2021/12/15 07:34:41;;;;;;;120.70;68.53;;;;;;;;;;4992703;28;20424;-79
2021/12/15 07:37:10;;;;;;;119.70;67.77;;;;;;;;;;4988626;28;20434;-80
2021/12/15 07:39:38;;;;;;;143.47;75.23;;;;;;;;;;4988837;28;21079;-81
2021/12/15 07:42:09;;;;;;;124.07;70.07;;;;;;;;;;4992694;28;20786;-80
2021/12/15 07:44:35;;;;;;;109.70;59.97;;;;;;;;;;4978948;28;20513;-80
2021/12/15 07:47:03;;;;;;;120.00;67.60;;;;;;;;;;4974684;28;20428;-80
2021/12/15 07:49:31;;;;;;;106.27;61.87;;;;;;;;;;4976573;28;20507;-80
2021/12/15 07:52:04;;;;;;;114.90;64.30;;;;;;;;;;4992287;28;20544;-80
2021/12/15 07:54:32;;;;;;;107.73;62.43;;;;;;;;;;4994170;28;20415;-81
2021/12/15 07:57:00;;;;;;;109.10;59.50;;;;;;;;;;4980996;28;20433;-81
2021/12/15 07:59:26;;;;;;;99.87;58.67;;;;;;;;;;4991085;28;21841;-80
2021/12/15 08:01:53;;;;;;;100.50;57.03;;;;;;;;;;4991610;28;20464;-80
2021/12/15 08:04:25;;;;;;;97.73;55.43;;;;;;;;;;4973576;28;20774;-80
2021/12/15 08:06:52;;;;;;;97.97;53.60;;;;;;;;;;4991253;28;20420;-80
2021/12/15 08:09:24;;;;;;;90.83;54.40;;;;;;;;;;4990944;28;20420;-80
2021/12/15 08:12:02;;;;;;;80.13;49.60;;;;;;;;;;4994932;28;20859;-80
2021/12/15 08:14:31;;;;;;;90.70;51.37;;;;;;;;;;4992191;28;20424;-80
2021/12/15 08:17:00;;;;;;;94.07;54.53;;;;;;;;;;4989832;28;21018;-80
2021/12/15 08:19:32;;;;;;;89.03;49.97;;;;;;;;;;4971845;28;20436;-79
2021/12/15 08:21:59;;;;;;;95.43;53.40;;;;;;;;;;4976452;28;20477;-80
2021/12/15 08:24:26;;;;;;;87.30;51.57;;;;;;;;;;4990930;28;20648;-80
2021/12/15 08:26:55;;;;;;;82.63;48.43;;;;;;;;;;4969221;28;20988;-80
2021/12/15 08:29:24;;;;;;;76.97;46.87;;;;;;;;;;5004385;28;20431;-80
2021/12/15 08:32:00;;;;;;;91.47;50.10;;;;;;;;;;5004030;28;20438;-79
2021/12/15 08:34:30;;;;;;;82.13;47.30;;;;;;;;;;4986368;28;20506;-79
2021/12/15 08:36:56;;;;;;;85.23;50.60;;;;;;;;;;4988086;28;20476;-80
2021/12/15 08:39:23;;;;;;;89.30;52.10;;;;;;;;;;4989378;28;20432;-80
2021/12/15 08:41:53;;;;;;;88.50;52.60;;;;;;;;;;4985909;28;20440;-79
2021/12/15 08:44:20;;;;;;;96.50;53.67;;;;;;;;;;4968554;28;20517;-79
2021/12/15 08:46:53;;;;;;;85.50;50.73;;;;;;;;;;4985511;28;20432;-79
2021/12/15 08:49:23;;;;;;;87.70;49.47;;;;;;;;;;4969383;28;20418;-80
2021/12/15 08:51:50;;;;;;;82.30;48.53;;;;;;;;;;4972649;28;20421;-80
2021/12/15 08:54:18;;;;;;;82.70;48.53;;;;;;;;;;4979276;28;20416;-80
2021/12/15 08:56:45;;;;;;;80.80;44.87;;;;;;;;;;4985403;28;20630;-80
2021/12/15 08:59:12;;;;;;;79.50;46.60;;;;;;;;;;4986081;28;20540;-80
2021/12/15 09:01:39;;;;;;;86.33;48.07;;;;;;;;;;4986410;28;20498;-80
2021/12/15 09:04:06;;;;;;;79.20;44.93;;;;;;;;;;4987068;28;20855;-80
2021/12/15 09:06:33;;;;;;;64.77;39.87;;;;;;;;;;4984532;28;20409;-80
2021/12/15 09:08:59;;;;;;;71.60;41.90;;;;;;;;;;4968605;28;20950;-80
2021/12/15 09:11:27;;;;;;;67.27;41.40;;;;;;;;;;4965265;28;20519;-80
2021/12/15 09:13:58;;;;;;;76.77;43.73;;;;;;;;;;4987313;28;21183;-80
2021/12/15 09:16:25;;;;;;;70.67;42.87;;;;;;;;;;5001180;28;21351;-79
2021/12/15 09:18:52;;;;;;;75.63;43.27;;;;;;;;;;4986856;28;20421;-80
2021/12/15 09:21:20;;;;;;;68.97;41.53;;;;;;;;;;4987230;28;20596;-80
2021/12/15 09:23:47;;;;;;;66.67;40.20;;;;;;;;;;4971445;28;20421;-80
2021/12/15 09:26:14;;;;;;;64.47;38.67;;;;;;;;;;4990714;28;21078;-81
2021/12/15 09:28:41;;;;;;;64.40;38.93;;;;;;;;;;4984794;28;20428;-80
2021/12/15 09:31:09;;;;;;;65.57;39.83;;;;;;;;;;4984187;28;20412;-81
2021/12/15 09:33:38;;;;;;;69.30;41.83;;;;;;;;;;4988914;28;20527;-80
2021/12/15 09:36:35;;;;;;;68.43;39.47;;;;;;;;;;4991375;28;21252;-81
2021/12/15 09:39:06;;;;;;;63.10;38.47;;;;;;;;;;4964693;28;20463;-80
2021/12/15 09:41:51;;;;;;;61.50;38.23;;;;;;;;;;4968883;28;20463;-81
2021/12/15 09:44:26;;;;;;;59.73;36.43;;;;;;;;;;5000782;28;20448;-81
2021/12/15 10:05:11;;;;;;;60.67;35.43;;;;;;;;;;4986949;28;20412;-81
2021/12/15 10:10:37;;;;;;;57.17;35.63;;;;;;;;;;4978089;28;20883;-81
2021/12/15 10:20:21;;;;;;;68.80;41.47;;;;;;;;;;4986656;28;20417;-81
2021/12/15 10:22:54;;;;;;;60.53;38.53;;;;;;;;;;4980575;28;20431;-81
2021/12/15 10:25:33;;;;;;;60.73;37.80;;;;;;;;;;5002944;28;20530;-81
2021/12/15 10:31:43;;;;;;;65.80;41.77;;;;;;;;;;4972759;28;20855;-81
2021/12/15 10:34:52;;;;;;;67.03;40.17;;;;;;;;;;4961574;28;20440;-81
2021/12/15 10:37:30;;;;;;;74.33;46.30;;;;;;;;;;4984337;28;21164;-81
2021/12/15 10:40:31;;;;;;;75.73;49.40;;;;;;;;;;4995935;28;20503;-81
2021/12/15 10:43:33;;;;;;;;;;;;;;;;;;;;;
2021/12/15 10:46:36;;;;;;;;;;;;;;;;;;;;;
2021/12/15 10:49:25;;;;;;;77.47;49.67;;;;;;;;;;4883981;29;20438;-80
2021/12/15 10:52:04;;;;;;;79.37;49.10;;;;;;;;;;4912787;29;20443;-81
2021/12/15 10:54:51;;;;;;;80.03;51.03;;;;;;;;;;4910458;29;20437;-81
2021/12/15 11:00:40;;;;;;;71.03;46.93;;;;;;;;;;4936033;28;20517;-81
2021/12/15 11:03:34;;;;;;;79.83;44.93;;;;;;;;;;4984116;28;20432;-81
2021/12/15 11:06:01;;;;;;;76.80;49.20;;;;;;;;;;4976559;28;20457;-81
2021/12/15 11:08:33;;;;;;;70.30;44.23;;;;;;;;;;4982061;28;20424;-81
2021/12/15 11:11:08;;;;;;;75.07;46.27;;;;;;;;;;4966497;28;20640;-81
2021/12/15 11:14:14;;;;;;;67.30;43.33;;;;;;;;;;4984746;28;20490;-81
2021/12/15 11:16:48;;;;;;;67.10;44.23;;;;;;;;;;4963664;28;20441;-81
2021/12/15 11:19:43;;;;;;;76.27;49.20;;;;;;;;;;4969566;28;20435;-82
2021/12/15 11:22:28;;;;;;;79.00;50.07;;;;;;;;;;4983899;28;21298;-81
2021/12/15 11:25:19;;;;;;;73.40;47.87;;;;;;;;;;4984507;28;20444;-81
2021/12/15 11:42:10;;;;;;;;;;;;;;;;;;;;;
2021/12/15 11:44:37;;;;;;;73.83;49.90;;;;;;;;;;4956037;28;20575;-80
2021/12/15 11:47:32;;;;;;;78.37;52.10;;;;;;;;;;4986540;28;20619;-81
2021/12/15 11:53:49;;;;;;;85.53;54.27;;;;;;;;;;4927699;28;21226;-80
2021/12/15 12:00:10;;;;;;;;;;;;;;;;;;;;;
2021/12/15 12:03:00;;;;;;;83.27;55.17;;;;;;;;;;4920917;28;20424;-80
2021/12/15 12:05:51;;;;;;;;;;;;;;;;;;;;;
2021/12/15 12:08:20;;;;;;;83.87;57.07;;;;;;;;;;4981805;28;20436;-80
2021/12/15 12:11:15;;;;;;;86.00;58.13;;;;;;;;;;4983185;28;20432;-81
2021/12/15 12:13:49;;;;;;;87.73;59.80;;;;;;;;;;4980795;28;20440;-80
2021/12/15 12:16:31;;;;;;;91.73;60.87;;;;;;;;;;4964225;28;20424;-81
2021/12/15 12:19:53;;;;;;;94.93;59.17;;;;;;;;;;4982151;28;20500;-80
2021/12/15 12:38:26;;;;;;;86.87;58.30;;;;;;;;;;4875405;29;21098;-80
2021/12/15 12:41:28;;;;;;;94.07;62.20;;;;;;;;;;4909294;29;20439;-81
2021/12/15 12:44:09;;;;;;;88.23;57.67;;;;;;;;;;4955911;28;20432;-80
2021/12/15 12:47:26;;;;;;;97.00;62.63;;;;;;;;;;4985941;28;21342;-80
2021/12/15 12:50:32;;;;;;;95.10;61.30;;;;;;;;;;4940205;28;20416;-80
2021/12/15 13:02:11;;;;;;;86.07;57.97;;;;;;;;;;4953146;28;20421;-81
2021/12/15 13:04:52;;;;;;;89.93;60.03;;;;;;;;;;4963360;28;20457;-82
2021/12/15 13:07:41;;;;;;;88.97;60.50;;;;;;;;;;4989081;28;20432;-81
2021/12/15 13:10:20;;;;;;;94.90;62.50;;;;;;;;;;4984915;28;20455;-82
2021/12/15 13:12:59;;;;;;;98.40;65.20;;;;;;;;;;4987818;28;20424;-81
2021/12/15 13:15:36;;;;;;;93.87;63.87;;;;;;;;;;4987900;28;20431;-81
2021/12/15 13:18:25;;;;;;;97.70;67.23;;;;;;;;;;4991298;28;20443;-81
2021/12/15 13:21:11;;;;;;;90.43;62.90;;;;;;;;;;4990781;28;20425;-81
2021/12/15 13:23:58;;;;;;;105.73;68.03;;;;;;;;;;4987203;28;20882;-81
2021/12/15 13:30:02;;;;;;;;;;;;;;;;;;;;;
2021/12/15 13:32:37;;;;;;;95.53;65.37;;;;;;;;;;4988802;28;21242;-81
2021/12/15 13:35:27;;;;;;;98.33;66.40;;;;;;;;;;4975956;28;20439;-81
2021/12/15 13:38:02;;;;;;;101.23;66.83;;;;;;;;;;4971050;28;20437;-81
2021/12/15 13:41:07;;;;;;;111.33;72.43;;;;;;;;;;4983628;28;20504;-80
2021/12/15 13:43:52;;;;;;;98.13;65.43;;;;;;;;;;4986342;28;20436;-80
2021/12/15 13:46:44;;;;;;;105.70;71.00;;;;;;;;;;4986716;28;20456;-80
2021/12/15 13:49:20;;;;;;;112.40;74.47;;;;;;;;;;4986445;28;20433;-81
2021/12/15 13:52:15;;;;;;;;;;;;;;;;;;;;;
2021/12/15 13:54:45;;;;;;;120.50;75.83;;;;;;;;;;4989954;28;20427;-81
2021/12/15 13:57:22;;;;;;;116.83;76.50;;;;;;;;;;4986538;28;20439;-80
2021/12/15 14:00:00;;;;;;;116.40;77.93;;;;;;;;;;4989427;28;20412;-80
2021/12/15 14:02:39;;;;;;;115.80;78.53;;;;;;;;;;4986400;28;20443;-80
2021/12/15 14:05:09;;;;;;;111.90;74.53;;;;;;;;;;4971860;28;20487;-80
2021/12/15 14:07:49;;;;;;;112.80;74.70;;;;;;;;;;4972461;28;20425;-81
2021/12/15 14:10:20;;;;;;;112.83;73.87;;;;;;;;;;5001526;28;20448;-80
2021/12/15 14:12:47;;;;;;;111.60;70.43;;;;;;;;;;4984314;28;20538;-80
2021/12/15 14:15:19;;;;;;;106.43;70.83;;;;;;;;;;4987218;28;20479;-80
2021/12/15 14:17:46;;;;;;;105.27;69.37;;;;;;;;;;4987110;28;20439;-80
2021/12/15 14:20:17;;;;;;;102.53;72.13;;;;;;;;;;4987921;28;21223;-81
2021/12/15 14:22:44;;;;;;;99.70;67.73;;;;;;;;;;4992702;28;20436;-80
2021/12/15 14:25:11;;;;;;;112.17;69.70;;;;;;;;;;4983605;28;20452;-79
2021/12/15 14:31:06;;;;;;;108.23;71.20;;;;;;;;;;4984037;28;20402;-81
2021/12/15 14:33:43;;;;;;;110.07;73.87;;;;;;;;;;4976734;28;20440;-80
2021/12/15 14:36:26;;;;;;;109.40;74.20;;;;;;;;;;4986873;28;20438;-80
2021/12/15 14:39:20;;;;;;;101.70;73.10;;;;;;;;;;5000065;28;21269;-81
2021/12/15 14:41:57;;;;;;;105.20;72.73;;;;;;;;;;4971031;28;20513;-80
2021/12/15 14:44:31;;;;;;;108.47;73.47;;;;;;;;;;4987221;28;20516;-80
2021/12/15 14:47:27;;;;;;;109.13;73.60;;;;;;;;;;4983332;28;20435;-81
2021/12/15 14:49:59;;;;;;;106.70;72.83;;;;;;;;;;4998209;28;20474;-80
2021/12/15 14:52:38;;;;;;;105.23;71.97;;;;;;;;;;4973933;28;20420;-80
2021/12/15 14:55:17;;;;;;;113.87;76.27;;;;;;;;;;5000529;28;20439;-80
2021/12/15 14:58:06;;;;;;;;;;;;;;;;;;;;;
2021/12/15 15:00:56;;;;;;;120.70;75.10;;;;;;;;;;4988226;28;20432;-81
2021/12/15 15:03:51;;;;;;;107.70;73.00;;;;;;;;;;4873175;29;20506;-80
2021/12/15 15:06:36;;;;;;;113.23;76.23;;;;;;;;;;4856586;29;20491;-81
2021/12/15 15:10:02;;;;;;;108.40;72.17;;;;;;;;;;4949325;28;20851;-80
2021/12/15 15:12:50;;;;;;;105.47;72.30;;;;;;;;;;4881973;29;20450;-80
2021/12/15 15:16:06;;;;;;;103.63;71.37;;;;;;;;;;4890221;29;20420;-80
2021/12/15 15:18:34;;;;;;;107.40;74.43;;;;;;;;;;4862659;29;20581;-80
2021/12/15 15:21:30;;;;;;;114.67;78.20;;;;;;;;;;4892348;29;20788;-80
2021/12/15 15:24:03;;;;;;;110.43;72.60;;;;;;;;;;4991158;28;20428;-80
2021/12/15 15:26:51;;;;;;;;;;;;;;;;;;;;;
2021/12/15 15:29:36;;;;;;;121.77;78.33;;;;;;;;;;4988675;28;20423;-80
2021/12/15 15:32:40;;;;;;;;;;;;;;;;;;;;;
2021/12/15 15:35:25;;;;;;;111.23;75.43;;;;;;;;;;4987873;28;20430;-80
2021/12/15 15:38:05;;;;;;;115.83;76.63;;;;;;;;;;4962630;28;20428;-80
2021/12/15 15:40:54;;;;;;;113.50;76.87;;;;;;;;;;4985947;28;20843;-80
2021/12/15 15:43:28;;;;;;;119.50;76.67;;;;;;;;;;4971620;28;20524;-81
2021/12/15 15:45:56;;;;;;;120.03;81.43;;;;;;;;;;4992991;28;20628;-80
2021/12/15 15:48:51;;;;;;;118.33;80.33;;;;;;;;;;4969275;28;20424;-80
2021/12/15 15:51:36;;;;;;;117.83;79.33;;;;;;;;;;4989457;28;20956;-80
2021/12/15 15:54:38;;;;;;;117.83;82.13;;;;;;;;;;4990472;28;21019;-81
2021/12/15 15:57:22;;;;;;;;;;;;;;;;;;;;;
2021/12/15 16:03:05;;;;;;;130.63;84.00;;;;;;;;;;4990210;28;20504;-81
2021/12/15 16:05:41;;;;;;;123.87;82.23;;;;;;;;;;4987690;28;20448;-81
2021/12/15 16:08:15;;;;;;;130.97;88.87;;;;;;;;;;4966142;28;20460;-81
2021/12/15 16:10:56;;;;;;;131.10;87.20;;;;;;;;;;4988772;28;20458;-81
2021/12/15 16:13:42;;;;;;;127.97;86.27;;;;;;;;;;4980343;28;20439;-81
2021/12/15 16:19:12;;;;;;;139.00;88.37;;;;;;;;;;4995081;28;20447;-81
2021/12/15 16:27:18;;;;;;;130.43;85.63;;;;;;;;;;4992380;28;20510;-81
2021/12/15 16:30:20;;;;;;;137.07;92.90;;;;;;;;;;4991274;28;21042;-81
2021/12/15 16:36:33;;;;;;;;;;;;;;;;;;;;;
2021/12/15 16:42:46;;;;;;;151.10;97.33;;;;;;;;;;4914476;29;20424;-80
2021/12/15 16:45:35;;;;;;;141.83;94.43;;;;;;;;;;4948608;28;20463;-81
2021/12/15 16:51:18;;;;;;;145.57;94.77;;;;;;;;;;4934459;28;21061;-80
2021/12/15 16:53:46;;;;;;;136.87;91.60;;;;;;;;;;4916243;28;20419;-81
2021/12/15 16:56:33;;;;;;;155.57;97.87;;;;;;;;;;4933685;28;20429;-81
2021/12/15 16:59:34;;;;;;;155.70;100.63;;;;;;;;;;4924717;28;20437;-80
2021/12/15 17:02:42;;;;;;;147.37;95.57;;;;;;;;;;5005875;28;20431;-80
2021/12/15 17:05:19;;;;;;;144.03;91.70;;;;;;;;;;4982010;28;20444;-80
2021/12/15 17:08:15;;;;;;;132.83;86.83;;;;;;;;;;4983999;28;20534;-80
2021/12/15 17:10:46;;;;;;;147.90;94.83;;;;;;;;;;4971060;28;20437;-80
2021/12/15 17:16:26;;;;;;;147.00;91.10;;;;;;;;;;4965740;28;20752;-80
2021/12/15 17:22:12;;;;;;;154.03;93.87;;;;;;;;;;4901079;29;20535;-80
2021/12/15 17:24:42;;;;;;;135.57;83.33;;;;;;;;;;4983489;28;20466;-80
2021/12/15 17:27:11;;;;;;;125.67;81.03;;;;;;;;;;4983086;28;20428;-80
2021/12/15 17:33:23;;;;;;;;;;;;;;;;;;;;;
2021/12/15 17:42:27;;;;;;;118.53;76.53;;;;;;;;;;4976587;28;20421;-80
2021/12/15 17:45:15;;;;;;;118.17;75.83;;;;;;;;;;4981737;28;20871;-81
2021/12/15 17:47:50;;;;;;;116.40;72.97;;;;;;;;;;4964728;28;20444;-81
2021/12/15 17:50:37;;;;;;;120.27;73.73;;;;;;;;;;4995913;28;20526;-80
2021/12/15 17:53:11;;;;;;;132.63;79.60;;;;;;;;;;4967047;28;20999;-80